Time;durP1;ratioP1;P1;durP2;ratioP2;P2;SDS_P1;SDS_P2;PMS_P1;PMS_P2;Temp;Humidity;BMP_temperature;BMP_pressure;BME280_temperature;BME280_humidity;BME280_pressure;Samples;Min_cycle;Max_cycle;Signal;HPM_P1;HPM_P2
2022/05/18 00:33:06;;;;;;;;;;;;;;;;;;;;;
2022/05/18 00:41:37;;;;;;;;;;;;;;;;;;;;;
2022/05/18 00:46:42;;;;;;;;;;;;;;;;;;;;;
2022/05/18 00:51:12;;;;;;;7.43;3.47;;;11.50;99.90;;;;;;5997632;23;20471;-83
2022/05/18 00:55:03;;;;;;;8.00;3.90;;;11.40;99.90;;;;;;5977971;23;20025;-83
2022/05/18 00:58:54;;;;;;;8.52;3.60;;;11.40;99.90;;;;;;5847347;24;20033;-83
2022/05/18 01:01:45;;;;;;;3.80;3.22;;;11.60;99.90;;;;;;5099284;27;20130;-84
2022/05/18 01:04:32;;;;;;;3.20;2.92;;;11.60;99.90;;;;;;5003513;28;20058;-84
2022/05/18 01:07:26;;;;;;;7.28;5.10;;;11.50;99.90;;;;;;5003493;28;20054;-84
2022/05/18 01:09:58;;;;;;;3.78;3.47;;;11.50;99.90;;;;;;4956073;28;20046;-84
2022/05/18 01:12:28;;;;;;;5.20;4.00;;;11.60;99.90;;;;;;4959290;28;20058;-84
2022/05/18 01:15:15;;;;;;;6.18;3.75;;;11.70;99.90;;;;;;4937597;28;20264;-84
2022/05/18 01:17:58;;;;;;;3.88;3.55;;;11.40;99.90;;;;;;4968562;28;20395;-84
2022/05/18 01:20:36;;;;;;;4.90;3.88;;;11.40;99.90;;;;;;4952017;28;20050;-84
2022/05/18 01:23:13;;;;;;;4.22;3.58;;;11.30;99.90;;;;;;4961234;28;20121;-84
2022/05/18 01:26:49;;;;;;;11.10;5.20;;;11.30;99.90;;;;;;4994944;28;20046;-85
2022/05/18 01:29:41;;;;;;;12.23;5.03;;;11.20;99.90;;;;;;4982996;28;20065;-84
2022/05/18 01:32:22;;;;;;;4.45;3.58;;;11.20;99.90;;;;;;5041861;28;20044;-84
2022/05/18 01:34:53;;;;;;;5.70;4.10;;;11.20;99.90;;;;;;5030663;28;20053;-84
2022/05/18 01:37:31;;;;;;;7.47;3.53;;;11.20;99.90;;;;;;4996055;28;20047;-84
2022/05/18 01:40:11;;;;;;;5.07;3.58;;;11.20;99.90;;;;;;5021426;28;20050;-84
2022/05/18 01:49:11;;;;;;;;;;;;;;;;;;;;;
2022/05/18 02:10:13;;;;;;;;;;;;;;;;;;;;;
2022/05/18 02:19:46;;;;;;;;;;;;;;;;;;;;;
2022/05/18 03:08:39;;;;;;;;;;;;;;;;;;;;;
2022/05/18 04:25:52;;;;;;;7.20;5.25;;;10.50;99.90;;;;;;4949150;28;20043;-84
2022/05/18 04:50:24;;;;;;;10.18;5.60;;;11.60;99.90;;;;;;4646013;30;20711;-80
2022/05/18 04:57:16;;;;;;;7.97;5.68;;;12.40;99.90;;;;;;4691963;30;20048;-79
2022/05/18 04:59:43;;;;;;;12.70;8.80;;;12.90;99.90;;;;;;4731412;29;20053;-81
2022/05/18 05:02:13;;;;;;;9.00;7.82;;;13.10;99.90;;;;;;4927893;29;20564;-84
2022/05/18 05:04:45;;;;;;;11.93;7.95;;;13.60;99.90;;;;;;4930454;29;20050;-80
2022/05/18 05:07:13;;;;;;;11.68;9.57;;;14.00;99.90;;;;;;4931672;29;20145;-86
2022/05/18 05:09:41;;;;;;;10.55;7.40;;;14.20;99.90;;;;;;4932335;28;20051;-80
2022/05/18 05:12:10;;;;;;;11.85;6.78;;;14.50;99.90;;;;;;4923840;29;20525;-83
2022/05/18 05:14:40;;;;;;;11.40;7.15;;;14.70;99.90;;;;;;4935432;29;20059;-86
2022/05/18 05:17:19;;;;;;;10.13;7.05;;;15.00;99.90;;;;;;4933545;28;20047;-87
2022/05/18 05:20:31;;;;;;;11.35;7.57;;;15.30;99.90;;;;;;4940185;28;20051;-84
2022/05/18 05:23:06;;;;;;;8.15;5.60;;;15.70;99.90;;;;;;4934153;28;20163;-83
2022/05/18 05:26:00;;;;;;;12.90;6.40;;;15.80;99.90;;;;;;4911338;29;20050;-84
2022/05/18 05:29:23;;;;;;;8.05;6.78;;;16.10;99.90;;;;;;4931529;28;20063;-84
2022/05/18 05:31:54;;;;;;;8.98;6.40;;;16.40;99.90;;;;;;4921344;29;20063;-84
2022/05/18 05:34:47;;;;;;;12.93;7.32;;;16.50;99.90;;;;;;4907296;29;20584;-84
2022/05/18 05:37:27;;;;;;;8.38;6.80;;;16.80;99.90;;;;;;4940980;28;20043;-84
2022/05/18 05:40:19;;;;;;;7.18;6.47;;;17.00;99.90;;;;;;4930725;28;20606;-85
2022/05/18 05:43:19;;;;;;;10.30;6.57;;;17.10;99.90;;;;;;4914968;29;20063;-86
2022/05/18 05:46:03;;;;;;;10.30;7.53;;;17.20;99.90;;;;;;4913093;29;20044;-83
2022/05/18 05:49:14;;;;;;;9.32;8.43;;;17.30;99.90;;;;;;4918424;28;20062;-85
2022/05/18 06:02:31;;;;;;;9.35;7.78;;;17.70;99.90;;;;;;5316659;24;21278;-87
2022/05/18 06:18:09;;;;;;;10.50;7.65;;;18.10;99.90;;;;;;4626086;30;20059;-87
2022/05/18 06:20:58;;;;;;;7.70;6.88;;;18.10;99.90;;;;;;4628747;30;20052;-84
2022/05/18 06:28:49;;;;;;;7.40;6.32;;;18.40;99.90;;;;;;4598745;31;20058;-88
2022/05/18 06:35:57;;;;;;;;;;;;;;;;;;;;;
2022/05/18 06:38:29;;;;;;;7.47;5.10;;;18.60;99.90;;;;;;4564239;31;20088;-83
2022/05/18 06:44:15;;;;;;;6.55;5.95;;;18.90;99.90;;;;;;4577613;31;20071;-89
2022/05/18 06:47:00;;;;;;;5.90;5.20;;;19.10;99.90;;;;;;4565404;31;20073;-84
2022/05/18 06:50:38;;;;;;;10.27;6.80;;;19.20;99.90;;;;;;4571701;31;20527;-87
2022/05/18 07:02:33;;;;;;;9.40;6.05;;;19.10;99.90;;;;;;4716721;25;20760;-87
2022/05/18 07:12:16;;;;;;;7.00;6.10;;;19.90;99.90;;;;;;5269872;24;20377;-87
2022/05/18 07:20:30;;;;;;;6.82;6.22;;;20.40;99.90;;;;;;4751590;24;20053;-85
2022/05/18 07:27:49;;;;;;;7.18;6.47;;;20.60;99.90;;;;;;4627310;31;20060;-84
2022/05/18 07:35:41;;;;;;;9.70;7.68;;;20.40;99.90;;;;;;493212;28;20436;-84
2022/05/18 07:38:35;;;;;;;16.13;8.57;;;20.30;99.90;;;;;;4629285;30;20532;-87
2022/05/18 07:41:10;;;;;;;;;;;20.00;99.90;;;;;;4664123;30;20054;-83
2022/05/18 07:43:43;;;;;;;8.80;7.78;;;19.80;99.90;;;;;;4635291;30;19938;-87
2022/05/18 07:46:47;;;;;;;13.75;8.63;;;19.60;99.90;;;;;;4621281;30;20058;-88
2022/05/18 07:49:17;;;;;;;8.98;6.70;;;19.50;99.90;;;;;;4618447;30;20423;-82
2022/05/18 07:51:56;;;;;;;14.20;8.52;;;19.50;99.90;;;;;;4664108;30;20062;-84
2022/05/18 07:54:28;;;;;;;7.28;6.50;;;19.50;99.90;;;;;;4612419;30;20066;-84
2022/05/18 07:56:59;;;;;;;12.38;7.57;;;19.80;99.90;;;;;;4648937;30;20054;-87
2022/05/18 08:00:20;;;;;;;8.02;7.22;;;20.20;99.90;;;;;;4627303;30;20509;-84
2022/05/18 08:03:30;;;;;;;6.82;5.80;;;20.40;99.90;;;;;;4620861;30;20058;-84
2022/05/18 08:08:10;;;;;;;7.38;6.15;;;20.20;99.90;;;;;;4604435;31;20121;-89
2022/05/18 08:15:06;;;;;;;14.02;6.05;;;20.30;99.90;;;;;;4639769;30;20067;-88
2022/05/18 08:17:48;;;;;;;7.35;6.50;;;20.30;99.90;;;;;;4579533;31;20113;-86
2022/05/18 08:20:51;;;;;;;9.77;6.35;;;20.20;99.90;;;;;;4626562;30;20060;-83
2022/05/18 08:23:30;;;;;;;11.98;8.00;;;20.30;99.90;;;;;;4630473;31;20063;-85
2022/05/18 08:26:19;;;;;;;10.18;7.55;;;20.50;99.90;;;;;;4593952;30;20087;-88
2022/05/18 08:28:48;;;;;;;13.38;8.48;;;20.50;99.90;;;;;;4592597;30;20637;-83
2022/05/18 08:31:23;;;;;;;6.93;6.30;;;20.50;99.90;;;;;;4619228;31;20087;-82
2022/05/18 08:34:11;;;;;;;;;;;20.40;99.90;;;;;;4582979;31;20070;-82
2022/05/18 08:36:49;;;;;;;9.30;7.18;;;20.40;99.90;;;;;;4601541;30;19933;-87
2022/05/18 08:39:17;;;;;;;5.65;5.15;;;20.40;99.90;;;;;;4601922;31;20085;-83
2022/05/18 08:41:50;;;;;;;22.15;7.20;;;20.30;99.90;;;;;;4641974;30;20082;-81
2022/05/18 08:44:40;;;;;;;8.55;7.70;;;20.40;99.90;;;;;;4631562;30;20070;-82
2022/05/18 08:47:19;;;;;;;8.07;7.15;;;20.50;99.90;;;;;;4613172;31;20063;-87
2022/05/18 08:50:00;;;;;;;6.90;6.20;;;20.40;99.90;;;;;;4628992;30;20062;-82
2022/05/18 08:53:19;;;;;;;6.60;6.00;;;20.60;99.90;;;;;;4642860;30;20063;-83
2022/05/18 08:56:22;;;;;;;6.90;5.78;;;20.70;99.90;;;;;;4592430;30;20177;-87
2022/05/18 08:58:54;;;;;;;6.80;6.18;;;20.80;99.90;;;;;;4587071;31;20055;-86
2022/05/18 09:01:35;;;;;;;8.73;7.22;;;20.90;99.90;;;;;;4632201;30;20054;-82
2022/05/18 09:04:16;;;;;;;12.15;7.80;;;20.90;99.90;;;;;;4603369;30;20066;-88
2022/05/18 09:06:50;;;;;;;7.53;6.10;;;20.90;99.90;;;;;;4647763;30;20069;-87
2022/05/18 09:12:27;;;;;;;7.40;6.10;;;20.80;99.90;;;;;;4626078;30;20051;-87
2022/05/18 09:14:56;;;;;;;7.68;6.78;;;20.80;99.90;;;;;;4616501;30;20050;-86
2022/05/18 09:17:48;;;;;;;9.82;5.88;;;20.80;99.90;;;;;;4616469;30;20406;-82
2022/05/18 09:20:46;;;;;;;5.78;5.28;;;20.70;99.90;;;;;;4616540;30;20498;-83
2022/05/18 09:23:48;;;;;;;24.60;5.60;;;20.80;99.90;;;;;;4608010;30;20086;-82
2022/05/18 09:26:44;;;;;;;16.00;9.68;;;21.00;99.90;;;;;;4633370;30;20058;-87
2022/05/18 09:29:35;;;;;;;6.50;5.88;;;21.00;99.90;;;;;;4629966;31;20063;-88
2022/05/18 09:32:22;;;;;;;5.68;5.25;;;21.10;99.90;;;;;;4617627;30;20063;-87
2022/05/18 09:35:30;;;;;;;7.28;4.88;;;21.00;99.90;;;;;;4633880;30;20059;-88
2022/05/18 09:38:23;;;;;;;5.60;5.13;;;21.00;99.90;;;;;;4647425;30;20062;-86
2022/05/18 09:40:51;;;;;;;6.28;5.40;;;21.00;99.90;;;;;;4647449;30;20050;-87
2022/05/18 09:43:41;;;;;;;4.65;4.25;;;21.00;99.90;;;;;;4620281;30;20054;-87
2022/05/18 09:46:32;;;;;;;6.85;5.50;;;21.10;99.90;;;;;;4632763;30;20055;-88
2022/05/18 09:49:22;;;;;;;7.30;6.07;;;21.10;99.90;;;;;;4633572;30;20051;-88
2022/05/18 09:52:03;;;;;;;6.22;4.68;;;21.10;99.90;;;;;;4648454;30;20089;-86
2022/05/18 09:54:33;;;;;;;7.25;4.15;;;21.20;99.90;;;;;;4618298;30;20059;-87
2022/05/18 09:57:12;;;;;;;5.95;4.53;;;21.30;99.90;;;;;;4647169;30;20111;-88
2022/05/18 09:59:47;;;;;;;15.10;3.60;;;21.30;99.90;;;;;;4661410;30;20575;-88
2022/05/18 10:07:59;;;;;;;7.95;4.75;;;21.40;99.90;;;;;;4629757;30;20067;-85
2022/05/18 10:10:32;;;;;;;4.57;4.18;;;21.30;99.90;;;;;;4630440;31;20066;-86
2022/05/18 10:13:14;;;;;;;5.03;4.53;;;21.30;99.90;;;;;;4616660;31;20059;-86
2022/05/18 10:16:16;;;;;;;4.63;4.22;;;21.40;99.90;;;;;;4643604;30;20059;-81
2022/05/18 10:18:51;;;;;;;5.07;4.63;;;21.40;99.90;;;;;;4630700;31;20059;-81
2022/05/18 10:21:31;;;;;;;5.63;5.13;;;21.30;99.90;;;;;;4601945;31;20081;-81
2022/05/18 10:24:25;;;;;;;5.65;4.55;;;21.10;99.90;;;;;;4602824;30;20068;-80
2022/05/18 10:27:18;;;;;;;4.13;3.83;;;21.20;99.90;;;;;;4631814;31;20523;-81
2022/05/18 10:30:03;;;;;;;6.85;4.25;;;21.50;99.90;;;;;;4629761;30;20086;-81
2022/05/18 10:32:33;;;;;;;4.25;3.95;;;21.50;99.90;;;;;;4615670;31;20529;-81
2022/05/18 10:35:05;;;;;;;5.82;4.93;;;21.70;99.90;;;;;;4630634;31;20134;-87
2022/05/18 10:37:36;;;;;;;3.95;3.60;;;21.80;99.90;;;;;;4658682;30;20070;-77
2022/05/18 10:40:08;;;;;;;;;;;21.70;99.90;;;;;;4660967;30;20059;-80
2022/05/18 10:42:51;;;;;;;6.30;4.20;;;21.70;99.90;;;;;;4648464;30;19935;-86
2022/05/18 10:45:35;;;;;;;15.10;3.85;;;21.80;99.90;;;;;;4632366;30;20078;-86
2022/05/18 10:48:16;;;;;;;5.97;3.53;;;22.00;99.90;;;;;;4647544;30;20395;-86
2022/05/18 10:50:45;;;;;;;3.70;3.40;;;22.00;99.90;;;;;;4633106;30;20058;-80
2022/05/18 10:53:13;;;;;;;5.32;4.75;;;22.00;99.90;;;;;;4632899;30;20054;-81
2022/05/18 10:55:55;;;;;;;4.85;3.67;;;22.00;99.90;;;;;;4633140;30;20066;-80
2022/05/18 10:59:09;;;;;;;4.45;3.83;;;21.90;99.90;;;;;;4610870;30;20054;-81
2022/05/18 11:01:47;;;;;;;6.65;4.25;;;21.90;99.90;;;;;;4657729;30;20505;-81
2022/05/18 11:04:54;;;;;;;4.20;3.65;;;22.00;99.90;;;;;;4664828;30;20062;-78
2022/05/18 11:07:25;;;;;;;8.63;4.85;;;22.10;99.90;;;;;;4663785;30;20054;-80
2022/05/18 11:09:55;;;;;;;5.50;4.18;;;22.00;99.90;;;;;;4649133;30;20046;-82
2022/05/18 11:12:38;;;;;;;5.50;5.00;;;22.00;99.90;;;;;;4663130;30;20408;-80
2022/05/18 11:15:18;;;;;;;3.95;3.65;;;22.00;99.90;;;;;;4663006;30;20610;-81
2022/05/18 11:18:13;;;;;;;4.22;3.33;;;22.10;99.90;;;;;;4662609;30;20054;-87
2022/05/18 11:21:01;;;;;;;4.25;3.35;;;22.10;99.90;;;;;;4648867;30;20058;-86
2022/05/18 11:23:32;;;;;;;4.32;2.97;;;22.00;99.90;;;;;;4649048;30;20067;-81
2022/05/18 11:26:18;;;;;;;6.95;3.60;;;22.00;99.90;;;;;;4648695;30;20069;-82
2022/05/18 11:29:12;;;;;;;4.35;3.88;;;22.10;99.90;;;;;;4676947;30;20409;-80
2022/05/18 11:31:58;;;;;;;3.90;3.63;;;21.90;99.90;;;;;;4663320;30;20046;-82
2022/05/18 11:35:01;;;;;;;7.63;4.15;;;22.00;99.90;;;;;;4661955;30;20058;-86
2022/05/18 11:37:41;;;;;;;6.95;3.78;;;22.00;99.90;;;;;;4662420;30;20051;-85
2022/05/18 11:40:32;;;;;;;5.10;4.32;;;22.00;99.90;;;;;;4634494;30;20516;-87
2022/05/18 11:43:35;;;;;;;4.07;3.17;;;21.90;99.90;;;;;;4649246;30;20378;-85
2022/05/18 11:46:31;;;;;;;6.43;3.72;;;21.80;99.90;;;;;;4674388;30;20417;-83
2022/05/18 11:49:02;;;;;;;5.95;3.00;;;21.90;99.90;;;;;;4663421;30;20062;-87
2022/05/18 11:51:57;;;;;;;5.63;2.88;;;21.90;99.90;;;;;;4648804;30;20062;-83
2022/05/18 11:54:45;;;;;;;4.40;2.45;;;22.00;99.90;;;;;;4661431;30;20066;-81
2022/05/18 11:57:31;;;;;;;8.57;3.38;;;22.10;99.90;;;;;;4636877;30;20069;-87
2022/05/18 12:00:16;;;;;;;4.25;3.38;;;22.00;99.90;;;;;;4673074;30;20520;-82
2022/05/18 12:03:08;;;;;;;4.00;2.10;;;22.00;99.90;;;;;;4663433;30;20071;-84
2022/05/18 12:06:09;;;;;;;4.85;3.10;;;22.00;99.90;;;;;;4671767;30;20065;-83
2022/05/18 12:08:45;;;;;;;2.45;2.25;;;22.00;99.90;;;;;;4645953;30;20058;-84
2022/05/18 12:11:37;;;;;;;3.65;2.65;;;22.10;99.90;;;;;;4662213;30;20061;-85
2022/05/18 12:14:34;;;;;;;5.45;2.75;;;22.10;99.90;;;;;;4656545;30;20421;-81
2022/05/18 12:17:05;;;;;;;2.63;2.00;;;22.10;99.90;;;;;;4662664;30;20129;-80
2022/05/18 12:19:52;;;;;;;6.32;2.42;;;22.10;99.90;;;;;;4661705;30;20486;-81
2022/05/18 12:22:30;;;;;;;2.45;2.25;;;22.20;99.90;;;;;;4673868;30;20062;-80
2022/05/18 12:24:59;;;;;;;2.95;2.53;;;22.10;99.90;;;;;;4661276;30;20054;-80
2022/05/18 12:27:27;;;;;;;3.97;2.50;;;22.10;99.90;;;;;;4663385;30;20421;-81
2022/05/18 12:30:01;;;;;;;2.58;2.05;;;22.10;99.90;;;;;;4645915;30;20057;-81
2022/05/18 12:32:29;;;;;;;2.13;1.90;;;22.10;99.90;;;;;;4658631;30;20054;-79
2022/05/18 12:35:25;;;;;;;4.80;3.17;;;22.00;99.90;;;;;;4656696;30;20062;-85
2022/05/18 12:38:25;;;;;;;4.38;2.42;;;22.00;99.90;;;;;;4644493;30;20062;-86
2022/05/18 12:41:00;;;;;;;4.43;2.47;;;22.10;99.90;;;;;;4656281;30;20066;-82
2022/05/18 12:43:46;;;;;;;17.67;3.17;;;22.20;99.90;;;;;;4630815;30;20141;-83
2022/05/18 12:46:16;;;;;;;8.05;4.60;;;22.20;99.90;;;;;;4629780;30;20054;-83
2022/05/18 12:48:56;;;;;;;2.03;1.90;;;22.20;99.90;;;;;;4630253;30;20061;-83
2022/05/18 12:51:27;;;;;;;3.50;2.33;;;22.20;99.90;;;;;;4641089;30;20063;-79
2022/05/18 12:54:10;;;;;;;3.00;2.70;;;22.20;99.90;;;;;;4642222;30;20062;-82
2022/05/18 12:56:42;;;;;;;2.75;2.63;;;22.30;99.90;;;;;;4641094;30;20430;-79
2022/05/18 12:59:17;;;;;;;1.75;1.65;;;22.30;99.90;;;;;;4645670;30;20054;-81
2022/05/18 13:01:50;;;;;;;4.40;2.75;;;22.30;99.90;;;;;;4645786;30;20055;-81
2022/05/18 13:04:24;;;;;;;4.28;1.95;;;22.30;99.90;;;;;;4629973;30;20066;-82
2022/05/18 13:06:56;;;;;;;;;;;22.30;99.90;;;;;;4629899;30;20055;-81
2022/05/18 13:09:26;;;;;;;3.67;2.28;;;22.30;99.90;;;;;;4626879;31;19932;-79
2022/05/18 13:12:04;;;;;;;3.28;1.60;;;22.30;99.90;;;;;;4643315;30;20051;-80
2022/05/18 13:15:00;;;;;;;2.90;2.47;;;22.30;99.90;;;;;;4635511;30;20047;-81
2022/05/18 13:17:42;;;;;;;;;;;22.30;99.90;;;;;;4644908;30;20703;-80
2022/05/18 13:20:21;;;;;;;1.95;1.75;;;22.40;99.90;;;;;;4644031;30;19939;-78
2022/05/18 13:23:03;;;;;;;2.42;2.22;;;22.30;99.90;;;;;;4631674;30;20054;-83
2022/05/18 13:25:38;;;;;;;2.05;1.73;;;22.30;99.90;;;;;;4645447;30;20062;-83
2022/05/18 13:28:09;;;;;;;4.97;2.45;;;22.30;99.30;;;;;;4643710;30;20055;-81
2022/05/18 13:30:42;;;;;;;;;;;22.20;99.90;;;;;;4645883;30;20047;-81
2022/05/18 13:33:57;;;;;;;3.58;2.83;;;22.30;99.90;;;;;;4644365;30;20402;-82
2022/05/18 13:36:35;;;;;;;2.20;2.05;;;22.40;99.90;;;;;;4659877;30;20528;-82
2022/05/18 13:39:10;;;;;;;1.88;1.75;;;22.50;99.90;;;;;;4663955;30;20066;-81
2022/05/18 13:41:42;;;;;;;2.03;1.83;;;22.40;99.90;;;;;;4663834;30;20058;-79
2022/05/18 13:44:10;;;;;;;2.83;1.63;;;22.40;98.50;;;;;;4663354;30;20073;-80
2022/05/18 13:46:38;;;;;;;1.52;1.42;;;22.30;99.00;;;;;;4664480;30;20466;-86
2022/05/18 13:49:19;;;;;;;1.35;1.25;;;22.30;96.50;;;;;;4663823;30;20057;-86
2022/05/18 13:51:50;;;;;;;1.55;1.42;;;22.30;98.60;;;;;;4679936;30;20507;-85
2022/05/18 13:54:21;;;;;;;2.33;1.85;;;22.40;99.70;;;;;;4663490;30;20069;-83
2022/05/18 13:56:53;;;;;;;2.17;1.98;;;22.50;97.90;;;;;;4663827;30;20618;-85
2022/05/18 13:59:27;;;;;;;2.42;1.75;;;22.60;99.30;;;;;;4664134;30;20061;-82
2022/05/18 14:02:00;;;;;;;3.03;1.95;;;22.60;96.90;;;;;;4664083;30;20061;-82
2022/05/18 14:04:36;;;;;;;2.03;1.77;;;22.50;96.90;;;;;;4679251;30;20597;-82
2022/05/18 14:07:25;;;;;;;1.70;1.60;;;22.50;98.50;;;;;;4652914;30;20440;-80
2022/05/18 14:10:17;;;;;;;1.50;1.40;;;22.50;97.20;;;;;;4669213;30;20054;-82
2022/05/18 14:12:49;;;;;;;2.40;2.20;;;22.40;98.00;;;;;;4682612;30;20062;-81
2022/05/18 14:15:19;;;;;;;1.92;1.73;;;22.30;98.10;;;;;;4682407;30;20061;-80
2022/05/18 14:17:54;;;;;;;1.90;1.77;;;22.30;97.40;;;;;;4681874;30;20058;-80
2022/05/18 14:20:30;;;;;;;4.00;1.92;;;22.30;98.10;;;;;;4666915;30;20817;-81
2022/05/18 14:23:26;;;;;;;1.77;1.67;;;22.40;97.10;;;;;;4682522;30;20046;-80
2022/05/18 14:26:02;;;;;;;2.13;1.92;;;22.50;96.70;;;;;;4666697;30;20065;-81
2022/05/18 14:28:40;;;;;;;3.03;1.70;;;22.40;96.30;;;;;;4666400;30;20054;-82
2022/05/18 14:31:11;;;;;;;2.92;1.75;;;22.50;96.90;;;;;;4666369;30;20822;-80
2022/05/18 14:33:50;;;;;;;2.45;1.80;;;22.40;96.10;;;;;;4681995;30;20050;-82
2022/05/18 14:36:40;;;;;;;2.42;1.95;;;22.40;95.20;;;;;;4652155;30;20065;-81
2022/05/18 14:39:17;;;;;;;4.50;1.67;;;22.50;96.70;;;;;;4675498;30;20058;-82
2022/05/18 14:41:51;;;;;;;1.63;1.52;;;22.50;97.60;;;;;;4681202;30;20652;-79
2022/05/18 14:44:40;;;;;;;3.67;2.10;;;22.40;96.00;;;;;;4647917;30;20071;-84
2022/05/18 14:47:42;;;;;;;2.60;1.98;;;22.40;97.60;;;;;;4669114;30;20308;-84
2022/05/18 14:50:35;;;;;;;3.60;1.95;;;22.40;97.40;;;;;;4661926;30;20072;-81
2022/05/18 14:53:12;;;;;;;1.98;1.70;;;22.40;98.30;;;;;;4680077;30;20065;-80
2022/05/18 14:55:49;;;;;;;2.53;1.95;;;22.50;97.70;;;;;;4676613;30;20501;-80
2022/05/18 14:58:36;;;;;;;3.40;1.95;;;22.50;97.60;;;;;;4665320;30;20054;-82
2022/05/18 15:01:09;;;;;;;6.65;2.75;;;22.40;96.80;;;;;;4664431;30;20045;-79
2022/05/18 15:03:42;;;;;;;1.85;1.73;;;22.30;96.60;;;;;;4666327;30;20058;-80
2022/05/18 15:06:13;;;;;;;2.03;1.70;;;22.30;96.70;;;;;;4664682;30;20054;-78
2022/05/18 15:08:54;;;;;;;1.77;1.67;;;22.30;97.50;;;;;;4680424;30;20054;-77
2022/05/18 15:11:40;;;;;;;4.60;1.48;;;22.40;96.70;;;;;;4681304;30;20058;-80
2022/05/18 15:14:41;;;;;;;1.45;1.40;;;22.30;97.20;;;;;;4679593;30;20099;-79
2022/05/18 15:17:21;;;;;;;1.92;1.60;;;22.30;96.70;;;;;;4651695;30;20069;-79
2022/05/18 15:20:15;;;;;;;5.13;1.65;;;22.30;95.60;;;;;;4662933;30;20402;-80
2022/05/18 15:22:47;;;;;;;3.58;1.55;;;22.20;96.30;;;;;;4649500;30;20061;-78
2022/05/18 15:25:40;;;;;;;3.30;2.67;;;22.20;96.80;;;;;;4648121;30;20505;-84
2022/05/18 15:28:39;;;;;;;2.08;1.88;;;22.20;97.10;;;;;;4652076;30;20050;-84
2022/05/18 15:31:14;;;;;;;4.72;1.70;;;22.30;97.70;;;;;;4651662;30;20061;-84
2022/05/18 15:33:52;;;;;;;2.45;1.77;;;22.40;96.50;;;;;;4680825;30;20061;-82
2022/05/18 15:36:21;;;;;;;2.10;1.88;;;22.50;96.60;;;;;;4662674;30;20059;-83
2022/05/18 15:38:51;;;;;;;1.38;1.27;;;22.50;95.90;;;;;;4662906;30;20070;-84
2022/05/18 15:41:19;;;;;;;3.70;1.50;;;22.40;95.90;;;;;;4662486;30;20058;-81
2022/05/18 15:43:46;;;;;;;2.40;1.45;;;22.50;96.40;;;;;;4648854;30;20524;-84
2022/05/18 15:46:20;;;;;;;1.38;1.27;;;22.50;95.20;;;;;;4663106;30;20059;-84
2022/05/18 15:48:48;;;;;;;4.45;1.45;;;22.50;95.40;;;;;;4662215;30;20055;-83
2022/05/18 15:51:16;;;;;;;1.83;1.70;;;22.30;95.60;;;;;;4664273;30;20480;-84
2022/05/18 15:53:50;;;;;;;1.70;1.60;;;22.20;95.70;;;;;;4663316;30;20058;-81
2022/05/18 15:56:26;;;;;;;1.63;1.52;;;22.20;96.00;;;;;;4656450;30;20494;-83
2022/05/18 15:58:53;;;;;;;2.28;1.48;;;22.20;96.00;;;;;;4662620;30;20066;-84
2022/05/18 16:01:22;;;;;;;3.03;1.63;;;22.20;96.10;;;;;;4658559;30;20077;-83
2022/05/18 16:03:50;;;;;;;2.10;1.70;;;22.20;96.20;;;;;;4650184;30;20058;-83
2022/05/18 16:06:24;;;;;;;1.98;1.83;;;22.10;96.40;;;;;;4663391;30;20430;-82
2022/05/18 16:08:53;;;;;;;6.88;2.45;;;22.10;96.30;;;;;;4662870;30;20057;-83
2022/05/18 16:11:21;;;;;;;2.20;1.60;;;22.20;96.50;;;;;;4661521;30;20425;-84
2022/05/18 16:13:49;;;;;;;4.65;2.20;;;22.30;96.00;;;;;;4662445;30;20061;-82
2022/05/18 16:16:17;;;;;;;1.67;1.55;;;22.30;95.50;;;;;;4661656;30;20093;-84
2022/05/18 16:18:45;;;;;;;1.25;1.15;;;22.30;96.20;;;;;;4648222;30;20532;-83
2022/05/18 16:21:20;;;;;;;6.38;1.70;;;22.30;95.30;;;;;;4663050;30;20066;-85
2022/05/18 16:23:54;;;;;;;1.50;1.40;;;22.20;96.10;;;;;;4663664;30;20409;-84
2022/05/18 16:26:40;;;;;;;2.50;1.70;;;22.20;95.80;;;;;;4661512;30;20054;-84
2022/05/18 16:29:18;;;;;;;2.55;2.05;;;22.20;95.10;;;;;;4662698;30;20054;-81
2022/05/18 16:31:47;;;;;;;4.10;1.75;;;22.10;95.70;;;;;;4675221;30;20501;-84
2022/05/18 16:34:15;;;;;;;2.88;1.58;;;22.10;96.70;;;;;;4647769;30;20054;-84
2022/05/18 16:36:42;;;;;;;6.72;2.03;;;22.20;96.50;;;;;;4661731;30;20395;-84
2022/05/18 16:39:10;;;;;;;2.92;1.70;;;22.10;96.40;;;;;;4673098;30;20059;-82
2022/05/18 16:41:40;;;;;;;2.00;1.88;;;22.10;95.60;;;;;;4646057;30;20050;-83
2022/05/18 16:44:15;;;;;;;1.50;1.40;;;22.10;96.30;;;;;;4644214;30;20055;-83
2022/05/18 16:46:46;;;;;;;10.95;1.80;;;22.10;96.30;;;;;;4645168;30;20062;-82
2022/05/18 16:49:19;;;;;;;3.92;2.00;;;22.00;95.40;;;;;;4644633;30;20440;-83
2022/05/18 16:51:49;;;;;;;7.38;2.20;;;21.90;95.50;;;;;;4631309;30;20426;-85
2022/05/18 16:54:22;;;;;;;2.50;1.80;;;21.90;95.70;;;;;;4630588;30;20066;-82
2022/05/18 16:56:52;;;;;;;2.00;1.65;;;21.80;95.70;;;;;;4645896;30;20058;-81
2022/05/18 16:59:27;;;;;;;1.77;1.63;;;21.80;95.80;;;;;;4644676;30;20051;-80
2022/05/18 17:01:55;;;;;;;1.77;1.67;;;21.90;96.20;;;;;;4639906;30;20066;-80
2022/05/18 17:04:24;;;;;;;2.00;1.88;;;21.90;95.00;;;;;;4661510;30;20062;-80
2022/05/18 17:06:52;;;;;;;1.88;1.48;;;21.80;94.70;;;;;;4661972;30;20054;-80
2022/05/18 17:09:21;;;;;;;1.40;1.30;;;21.70;95.80;;;;;;4660741;30;20085;-80
2022/05/18 17:11:54;;;;;;;1.48;1.38;;;21.80;96.10;;;;;;4662013;30;20058;-80
2022/05/18 17:14:25;;;;;;;1.77;1.63;;;21.80;96.70;;;;;;4646917;30;20058;-79
2022/05/18 17:17:04;;;;;;;3.42;1.50;;;21.80;95.60;;;;;;4665893;30;20051;-80
2022/05/18 17:19:33;;;;;;;2.50;1.63;;;21.60;94.70;;;;;;4675437;30;20062;-79
2022/05/18 17:22:02;;;;;;;2.80;1.35;;;21.60;94.90;;;;;;4662321;30;20429;-80
2022/05/18 17:24:29;;;;;;;3.65;1.73;;;21.60;95.30;;;;;;4662608;30;20059;-79
2022/05/18 17:27:15;;;;;;;1.38;1.27;;;21.70;95.40;;;;;;4663064;30;20058;-79
2022/05/18 17:30:18;;;;;;;1.73;1.35;;;21.80;95.10;;;;;;4661865;30;20054;-80
2022/05/18 17:32:49;;;;;;;1.73;1.58;;;21.70;95.20;;;;;;4609637;31;20056;-81
2022/05/18 17:35:23;;;;;;;1.75;1.48;;;21.70;94.10;;;;;;4652928;30;20516;-80
2022/05/18 17:37:52;;;;;;;2.30;1.42;;;21.70;94.40;;;;;;4662316;30;20085;-84
2022/05/18 17:40:22;;;;;;;2.05;1.95;;;21.60;94.10;;;;;;4661032;30;20076;-82
2022/05/18 17:42:50;;;;;;;6.25;1.25;;;21.50;95.90;;;;;;4664125;30;20069;-84
2022/05/18 17:45:18;;;;;;;2.00;1.77;;;21.40;94.90;;;;;;4663705;30;20054;-83
2022/05/18 17:47:46;;;;;;;1.50;1.40;;;21.30;95.30;;;;;;4665855;30;20051;-84
2022/05/18 17:50:16;;;;;;;7.88;1.77;;;21.20;95.80;;;;;;4664508;30;20422;-82
2022/05/18 17:52:45;;;;;;;1.77;1.48;;;21.20;95.80;;;;;;4650261;30;20772;-83
2022/05/18 17:55:15;;;;;;;1.15;1.05;;;21.10;95.50;;;;;;4664785;30;20436;-83
2022/05/18 17:57:43;;;;;;;2.63;1.33;;;21.00;95.40;;;;;;4665540;30;20062;-85
2022/05/18 18:00:17;;;;;;;1.67;1.58;;;21.10;95.70;;;;;;4663800;30;20054;-83
2022/05/18 18:02:48;;;;;;;9.85;1.40;;;20.90;95.70;;;;;;4666046;30;20062;-83
2022/05/18 18:05:24;;;;;;;1.80;1.70;;;20.80;95.80;;;;;;4664124;30;20077;-80
2022/05/18 18:07:52;;;;;;;2.38;1.08;;;20.70;96.10;;;;;;4664329;30;20058;-80
2022/05/18 18:10:21;;;;;;;5.53;1.40;;;20.60;96.90;;;;;;4664993;30;20046;-80
2022/05/18 18:12:52;;;;;;;1.52;0.90;;;20.60;97.50;;;;;;4665502;30;20081;-80
2022/05/18 18:15:21;;;;;;;1.83;1.73;;;20.50;96.70;;;;;;4665115;30;20050;-80
2022/05/18 18:17:53;;;;;;;1.40;1.30;;;20.30;97.70;;;;;;4665131;30;20433;-81
2022/05/18 18:20:32;;;;;;;4.97;1.90;;;20.10;97.50;;;;;;4671408;30;20062;-81
2022/05/18 18:23:01;;;;;;;3.85;1.13;;;19.90;98.00;;;;;;4665530;30;20070;-80
2022/05/18 18:25:31;;;;;;;2.22;1.60;;;19.70;98.60;;;;;;4652909;30;20403;-81
2022/05/18 18:27:59;;;;;;;5.75;2.05;;;19.50;98.20;;;;;;4663769;30;20061;-80
2022/05/18 18:30:31;;;;;;;1.27;1.20;;;19.30;98.60;;;;;;4664356;30;20051;-80
2022/05/18 18:32:59;;;;;;;2.65;1.17;;;19.10;98.80;;;;;;4661714;30;20049;-80
2022/05/18 18:35:27;;;;;;;1.05;1.05;;;19.00;99.10;;;;;;4648261;30;20054;-80
2022/05/18 18:37:55;;;;;;;1.20;1.10;;;18.90;99.60;;;;;;4678984;30;20054;-81
2022/05/18 18:40:31;;;;;;;1.83;1.45;;;18.70;99.90;;;;;;4664511;30;20072;-81
2022/05/18 18:42:59;;;;;;;1.42;1.42;;;18.60;99.90;;;;;;4665344;30;20520;-81
2022/05/18 18:46:32;;;;;;;6.20;1.63;;;18.40;99.90;;;;;;4664645;30;20050;-82
2022/05/18 18:48:15;;;;;;;16.77;2.53;;;18.30;99.90;;;;;;4651169;30;20054;-81
2022/05/18 18:56:20;;;;;;;3.63;1.77;;;17.90;99.90;;;;;;4664691;30;20058;-82
2022/05/18 18:58:48;;;;;;;1.60;1.35;;;17.70;99.90;;;;;;4664622;30;20065;-84
2022/05/18 19:01:17;;;;;;;2.58;2.30;;;17.60;99.90;;;;;;4679115;30;20050;-83
2022/05/18 19:03:46;;;;;;;4.10;2.35;;;17.40;99.90;;;;;;4662299;30;20058;-83
2022/05/18 19:06:14;;;;;;;3.92;2.22;;;17.30;99.90;;;;;;4657265;30;20050;-83
2022/05/18 19:08:42;;;;;;;10.13;2.35;;;17.30;99.90;;;;;;4653283;30;20080;-83
2022/05/18 19:11:11;;;;;;;1.80;1.50;;;17.20;99.90;;;;;;4680250;30;20062;-84